createdAt,value
2018-06-24T00:02:28.732Z,3.80
2018-06-24T00:04:59.931Z,4.03
2018-06-24T00:07:31.932Z,4.23
2018-06-24T00:10:03.344Z,3.90
2018-06-24T00:12:34.707Z,3.63
2018-06-24T00:15:06.557Z,3.40
2018-06-24T00:17:37.672Z,3.90
2018-06-24T00:20:08.996Z,3.50
2018-06-24T00:22:40.039Z,3.50
2018-06-24T00:25:12.186Z,3.53
2018-06-24T00:27:43.420Z,3.50
2018-06-24T00:30:14.632Z,3.33
2018-06-24T00:32:45.972Z,3.40
2018-06-24T00:35:17.167Z,3.37
2018-06-24T00:37:48.544Z,3.50
2018-06-24T00:40:19.740Z,3.80
2018-06-24T00:42:51.360Z,3.50
2018-06-24T00:45:22.759Z,3.50
2018-06-24T00:47:53.919Z,3.53
2018-06-24T00:50:25.145Z,3.80
2018-06-24T00:52:56.446Z,4.37
2018-06-24T00:55:27.660Z,4.67
2018-06-24T00:57:58.939Z,4.67
2018-06-24T01:00:30.072Z,4.70
2018-06-24T01:03:01.507Z,5.00
2018-06-24T01:05:32.670Z,4.63
2018-06-24T01:08:04.097Z,4.90
2018-06-24T01:10:35.696Z,4.93
2018-06-24T01:13:07.075Z,4.90
2018-06-24T01:15:38.323Z,5.00
2018-06-24T01:18:09.463Z,5.00
2018-06-24T01:20:40.921Z,4.83
2018-06-24T01:23:12.440Z,4.83
2018-06-24T01:25:43.764Z,4.30
2018-06-24T01:28:14.275Z,4.43
2018-06-24T01:30:45.353Z,4.33
2018-06-24T01:33:16.713Z,4.20
2018-06-24T01:35:48.688Z,4.20
2018-06-24T01:38:19.695Z,4.07
2018-06-24T01:40:50.895Z,4.53
2018-06-24T01:43:22.553Z,4.40
2018-06-24T01:45:53.691Z,4.30
2018-06-24T01:48:24.862Z,4.30
2018-06-24T01:50:56.034Z,4.80
2018-06-24T01:53:27.291Z,4.20
2018-06-24T01:55:58.659Z,4.50
2018-06-24T01:58:29.838Z,4.40
2018-06-24T02:01:01.031Z,5.20
2018-06-24T02:03:32.419Z,4.20
2018-06-24T02:06:08.687Z,4.47
2018-06-24T02:08:40.205Z,4.53
2018-06-24T02:11:10.911Z,4.60
2018-06-24T02:13:42.045Z,4.70
2018-06-24T02:16:13.269Z,4.50
2018-06-24T02:18:44.508Z,4.60
2018-06-24T02:21:16.480Z,5.10
2018-06-24T02:23:48.090Z,4.70
2018-06-24T02:26:19.686Z,4.80
2018-06-24T02:28:51.049Z,4.90
2018-06-24T02:31:22.387Z,4.87
2018-06-24T02:33:53.601Z,4.70
2018-06-24T02:36:25.250Z,4.23
2018-06-24T02:38:56.596Z,4.50
2018-06-24T02:41:27.928Z,4.43
2018-06-24T02:43:58.945Z,4.53
2018-06-24T02:46:30.580Z,4.17
2018-06-24T02:49:01.944Z,4.43
2018-06-24T02:51:33.341Z,4.57
2018-06-24T02:54:05.045Z,4.33
2018-06-24T02:56:36.095Z,4.40
2018-06-24T02:59:07.273Z,4.20
2018-06-24T03:01:39.112Z,4.60
2018-06-24T03:04:10.243Z,3.77
2018-06-24T03:06:41.596Z,3.93
2018-06-24T03:09:12.897Z,4.30
2018-06-24T03:11:44.452Z,4.07
2018-06-24T03:14:15.781Z,4.00
2018-06-24T03:16:47.397Z,4.20
2018-06-24T03:19:18.801Z,4.00
2018-06-24T03:21:50.208Z,3.87
2018-06-24T03:24:21.393Z,4.13
2018-06-24T03:26:59.296Z,3.90
2018-06-24T03:29:30.391Z,3.93
2018-06-24T03:32:01.643Z,3.97
2018-06-24T03:34:32.978Z,3.70
2018-06-24T03:37:04.425Z,3.83
2018-06-24T03:39:41.891Z,3.87
2018-06-24T03:42:13.243Z,3.90
2018-06-24T03:44:44.621Z,3.70
2018-06-24T03:47:16.239Z,4.00
2018-06-24T03:49:47.879Z,4.00
2018-06-24T03:52:19.454Z,3.73
2018-06-24T03:54:50.835Z,3.70
2018-06-24T03:57:22.167Z,3.80
2018-06-24T03:59:53.345Z,3.70
2018-06-24T04:02:24.781Z,3.80
2018-06-24T04:04:56.133Z,3.60
2018-06-24T04:07:27.555Z,3.80
2018-06-24T04:09:58.758Z,3.57
2018-06-24T04:12:30.097Z,3.80
2018-06-24T04:15:01.320Z,3.47
2018-06-24T04:17:32.526Z,3.50
2018-06-24T04:20:03.742Z,3.70
2018-06-24T04:22:35.009Z,3.40
2018-06-24T04:25:06.664Z,3.50
2018-06-24T04:27:38.539Z,3.53
2018-06-24T04:30:10.259Z,3.87
2018-06-24T04:32:41.850Z,3.90
2018-06-24T04:35:13.303Z,4.30
2018-06-24T04:37:44.923Z,4.20
2018-06-24T04:40:16.688Z,4.07
2018-06-24T04:42:47.912Z,4.17
2018-06-24T04:45:19.484Z,4.10
2018-06-24T04:47:50.832Z,4.00
2018-06-24T04:50:22.206Z,3.80
2018-06-24T04:52:53.429Z,4.00
2018-06-24T04:55:25.088Z,4.20
2018-06-24T04:57:56.384Z,3.80
2018-06-24T05:00:29.120Z,3.90
2018-06-24T05:03:00.523Z,3.93
2018-06-24T05:05:31.901Z,4.07
2018-06-24T05:08:04.071Z,3.90
2018-06-24T05:10:35.304Z,4.27
2018-06-24T05:13:06.869Z,3.90
2018-06-24T05:15:38.268Z,3.80
2018-06-24T05:18:09.607Z,3.80
2018-06-24T05:20:40.866Z,3.40
2018-06-24T05:23:12.060Z,3.80
2018-06-24T05:25:43.570Z,3.50
2018-06-24T05:28:14.814Z,3.60
2018-06-24T05:30:46.017Z,3.37
2018-06-24T05:33:17.842Z,3.67
2018-06-24T05:35:49.736Z,3.70
2018-06-24T05:38:21.340Z,3.47
2018-06-24T05:40:52.732Z,3.80
2018-06-24T05:43:24.901Z,3.90
2018-06-24T05:45:57.080Z,3.73
2018-06-24T05:48:28.373Z,3.80
2018-06-24T05:50:59.942Z,3.40
2018-06-24T05:53:31.460Z,3.80
2018-06-24T05:56:02.816Z,4.00
2018-06-24T05:58:34.484Z,3.67
2018-06-24T06:01:05.936Z,3.67
2018-06-24T06:03:37.480Z,3.40
2018-06-24T06:06:09.848Z,3.33
2018-06-24T06:08:41.415Z,3.33
2018-06-24T06:11:12.971Z,3.00
2018-06-24T06:13:44.543Z,2.90
2018-06-24T06:16:15.941Z,2.70
2018-06-24T06:18:47.398Z,3.07
2018-06-24T06:21:19.044Z,3.03
2018-06-24T06:23:50.763Z,2.60
2018-06-24T06:26:22.243Z,2.70
2018-06-24T06:28:53.528Z,3.20
2018-06-24T06:31:25.166Z,2.87
2018-06-24T06:33:56.986Z,2.70
2018-06-24T06:36:28.012Z,2.63
2018-06-24T06:38:59.635Z,3.20
2018-06-24T06:41:31.223Z,2.93
2018-06-24T06:44:02.879Z,2.80
2018-06-24T06:46:34.229Z,2.73
2018-06-24T06:49:05.627Z,2.50
2018-06-24T06:51:37.775Z,3.17
2018-06-24T06:54:09.208Z,2.80
2018-06-24T06:56:41.816Z,2.50
2018-06-24T06:59:12.906Z,3.07
2018-06-24T07:01:44.347Z,2.90
2018-06-24T07:04:16.024Z,2.70
2018-06-24T07:06:47.472Z,2.87
2018-06-24T07:09:18.991Z,2.60
2018-06-24T07:11:50.370Z,2.47
2018-06-24T07:14:21.792Z,2.47
2018-06-24T07:16:53.172Z,2.80
2018-06-24T07:19:24.712Z,2.60
2018-06-24T07:21:56.588Z,2.40
2018-06-24T07:24:27.997Z,2.30
2018-06-24T07:26:59.643Z,2.60
2018-06-24T07:29:30.979Z,2.57
2018-06-24T07:32:02.825Z,2.40
2018-06-24T07:34:34.254Z,2.73
2018-06-24T07:37:05.667Z,2.70
2018-06-24T07:39:37.263Z,2.57
2018-06-24T07:42:08.861Z,2.50
2018-06-24T07:44:39.513Z,2.47
2018-06-24T07:47:10.988Z,2.40
2018-06-24T07:49:42.666Z,2.57
2018-06-24T07:52:14.200Z,2.17
2018-06-24T07:54:45.765Z,2.40
2018-06-24T07:57:17.447Z,2.50
2018-06-24T07:59:48.776Z,2.43
2018-06-24T08:02:20.384Z,2.57
2018-06-24T08:04:51.956Z,2.50
2018-06-24T08:07:23.359Z,2.07
2018-06-24T08:09:54.763Z,2.50
2018-06-24T08:12:26.181Z,2.50
2018-06-24T08:14:57.459Z,2.50
2018-06-24T08:17:28.842Z,2.20
2018-06-24T08:20:00.154Z,2.30
2018-06-24T08:22:31.371Z,2.70
2018-06-24T08:25:02.513Z,2.47
2018-06-24T08:27:34.217Z,2.50
2018-06-24T08:30:05.926Z,2.57
2018-06-24T08:32:37.027Z,2.53
2018-06-24T08:35:08.362Z,2.80
2018-06-24T08:37:39.672Z,2.67
2018-06-24T08:40:11.296Z,2.63
2018-06-24T08:42:43.007Z,2.77
2018-06-24T08:45:14.416Z,2.73
2018-06-24T08:47:45.798Z,3.00
2018-06-24T08:50:17.177Z,2.40
2018-06-24T08:52:48.582Z,2.90
2018-06-24T08:55:19.788Z,2.80
2018-06-24T08:57:51.857Z,2.73
2018-06-24T09:00:23.304Z,2.67
2018-06-24T09:02:54.757Z,2.57
2018-06-24T09:05:25.518Z,2.83
2018-06-24T09:07:56.865Z,2.90
2018-06-24T09:10:28.102Z,2.67
2018-06-24T09:12:59.710Z,2.80
2018-06-24T09:15:31.318Z,2.43
2018-06-24T09:18:02.617Z,2.73
2018-06-24T09:20:34.013Z,2.80
2018-06-24T09:23:05.532Z,2.60
2018-06-24T09:25:36.825Z,2.50
2018-06-24T09:28:08.412Z,2.20
2018-06-24T09:30:39.797Z,2.40
2018-06-24T09:34:13.618Z,2.30
2018-06-24T09:36:44.853Z,2.60
2018-06-24T09:39:16.050Z,2.47
2018-06-24T09:41:47.572Z,2.30
2018-06-24T09:44:18.775Z,2.50
2018-06-24T09:46:50.008Z,2.30
2018-06-24T09:49:21.156Z,3.70
2018-06-24T09:51:52.181Z,3.67
2018-06-24T09:54:23.344Z,4.53
2018-06-24T09:56:54.591Z,2.73
2018-06-24T09:59:25.973Z,3.70
2018-06-24T10:01:57.169Z,2.67
2018-06-24T10:04:28.516Z,2.43
2018-06-24T10:06:59.723Z,2.43
2018-06-24T10:09:31.085Z,2.57
2018-06-24T10:12:02.439Z,2.87
2018-06-24T10:14:33.712Z,2.57
2018-06-24T10:17:04.859Z,2.67
2018-06-24T10:19:37.049Z,3.67
2018-06-24T10:22:08.702Z,2.77
2018-06-24T10:24:40.029Z,2.80
2018-06-24T10:27:11.454Z,2.73
2018-06-24T10:29:43.099Z,2.80
2018-06-24T10:32:13.731Z,2.90
2018-06-24T10:34:45.813Z,2.63
2018-06-24T10:37:17.149Z,2.80
2018-06-24T10:39:48.789Z,2.63
2018-06-24T10:42:20.189Z,2.63
2018-06-24T10:44:51.703Z,2.53
2018-06-24T10:47:23.094Z,2.33
2018-06-24T10:49:54.755Z,2.60
2018-06-24T10:52:26.074Z,2.80
2018-06-24T10:54:57.508Z,2.80
2018-06-24T10:57:28.668Z,3.17
2018-06-24T10:59:59.847Z,2.67
2018-06-24T11:02:31.207Z,2.67
2018-06-24T11:05:02.651Z,2.70
2018-06-24T11:07:33.788Z,2.65
2018-06-24T11:10:05.297Z,2.80
2018-06-24T11:12:36.573Z,2.80
2018-06-24T11:15:07.591Z,3.20
2018-06-24T11:17:38.788Z,2.93
2018-06-24T11:20:10.145Z,2.73
2018-06-24T11:22:41.188Z,2.50
2018-06-24T11:25:12.579Z,2.50
2018-06-24T11:27:43.761Z,2.30
2018-06-24T11:30:15.033Z,2.37
2018-06-24T11:32:46.125Z,2.47
2018-06-24T11:35:17.706Z,2.77
2018-06-24T11:37:49.287Z,2.60
2018-06-24T11:40:20.529Z,2.33
2018-06-24T11:42:51.842Z,2.40
2018-06-24T11:45:23.045Z,1.93
2018-06-24T11:47:54.355Z,2.10
2018-06-24T11:50:25.616Z,2.17
2018-06-24T11:52:57.044Z,2.10
2018-06-24T11:55:28.376Z,2.30
2018-06-24T11:57:59.591Z,2.23
2018-06-24T12:00:30.809Z,2.23
2018-06-24T12:03:02.160Z,2.00
2018-06-24T12:05:34.188Z,1.97
2018-06-24T12:08:05.378Z,1.97
2018-06-24T12:10:36.708Z,1.90
2018-06-24T12:13:08.953Z,2.23
2018-06-24T12:15:40.405Z,1.93
2018-06-24T12:18:11.696Z,2.00
2018-06-24T12:20:42.873Z,1.80
2018-06-24T12:23:14.259Z,1.77
2018-06-24T12:25:45.659Z,1.98
2018-06-24T12:28:17.065Z,1.90
2018-06-24T12:30:48.235Z,1.75
2018-06-24T12:33:19.424Z,1.70
2018-06-24T12:35:50.852Z,1.62
2018-06-24T12:38:22.203Z,1.50
2018-06-24T12:40:53.912Z,1.77
2018-06-24T12:43:25.550Z,2.00
2018-06-24T12:45:56.945Z,2.10
2018-06-24T12:48:28.391Z,1.60
2018-06-24T12:50:59.737Z,1.82
2018-06-24T12:53:31.091Z,1.72
2018-06-24T12:56:02.321Z,1.80
2018-06-24T12:58:33.992Z,1.90
2018-06-24T13:01:04.622Z,1.67
2018-06-24T13:03:35.707Z,1.77
2018-06-24T13:06:07.199Z,2.22
2018-06-24T13:08:38.348Z,1.70
2018-06-24T13:11:09.509Z,1.93
2018-06-24T13:13:41.149Z,1.55
2018-06-24T13:16:11.891Z,1.50
2018-06-24T13:18:43.041Z,1.60
2018-06-24T13:21:14.490Z,1.80
2018-06-24T13:23:45.622Z,1.67
2018-06-24T13:26:16.989Z,1.75
2018-06-24T13:28:48.431Z,2.08
2018-06-24T13:31:19.791Z,1.70
2018-06-24T13:33:50.933Z,1.80
2018-06-24T13:36:22.791Z,1.47
2018-06-24T13:38:54.171Z,1.50
2018-06-24T13:41:25.336Z,1.57
2018-06-24T13:43:56.727Z,1.70
2018-06-24T13:46:28.085Z,1.40
2018-06-24T13:48:59.113Z,1.42
2018-06-24T13:51:30.488Z,1.40
2018-06-24T13:54:01.680Z,1.70
2018-06-24T13:56:33.086Z,1.40
2018-06-24T13:59:04.285Z,1.30
2018-06-24T14:01:35.481Z,1.53
2018-06-24T14:04:08.109Z,1.40
2018-06-24T14:06:39.443Z,1.40
2018-06-24T14:09:13.666Z,1.63
2018-06-24T14:11:44.771Z,1.33
2018-06-24T14:14:16.121Z,1.70
2018-06-24T14:16:47.335Z,1.60
2018-06-24T14:19:18.700Z,1.40
2018-06-24T14:21:50.093Z,1.50
2018-06-24T14:24:21.328Z,1.47
2018-06-24T14:26:52.489Z,1.70
2018-06-24T14:29:23.688Z,1.40
2018-06-24T14:31:54.859Z,1.60
2018-06-24T14:34:26.234Z,1.60
2018-06-24T14:36:57.616Z,1.70
2018-06-24T14:39:29.088Z,1.77
2018-06-24T14:42:00.380Z,1.67
2018-06-24T14:44:31.417Z,1.70
2018-06-24T14:47:02.673Z,1.87
2018-06-24T14:49:34.118Z,1.70
2018-06-24T14:52:05.851Z,1.77
2018-06-24T14:54:37.135Z,1.70
2018-06-24T14:57:08.408Z,1.60
2018-06-24T14:59:39.575Z,1.90
2018-06-24T15:02:11.360Z,1.90
2018-06-24T15:04:42.589Z,1.83
2018-06-24T15:07:13.770Z,1.67
2018-06-24T15:09:45.072Z,2.10
2018-06-24T15:12:16.752Z,1.90
2018-06-24T15:14:48.089Z,2.10
2018-06-24T15:17:19.226Z,2.20
2018-06-24T15:19:50.313Z,2.07
2018-06-24T15:22:21.744Z,1.83
2018-06-24T15:24:53.275Z,2.00
2018-06-24T15:27:24.606Z,1.87
2018-06-24T15:29:55.807Z,1.80
2018-06-24T15:32:27.009Z,2.00
2018-06-24T15:34:58.417Z,1.80
2018-06-24T15:37:29.688Z,2.03
2018-06-24T15:40:00.948Z,1.67
2018-06-24T15:42:32.207Z,1.80
2018-06-24T15:45:03.594Z,1.80
2018-06-24T15:47:34.740Z,1.77
2018-06-24T15:50:06.764Z,1.70
2018-06-24T15:52:37.969Z,1.43
2018-06-24T15:55:09.302Z,1.70
2018-06-24T15:57:40.636Z,2.00
2018-06-24T16:00:12.143Z,1.60
2018-06-24T16:02:43.457Z,1.50
2018-06-24T16:05:14.684Z,1.60
2018-06-24T16:07:45.828Z,1.47
2018-06-24T16:10:17.198Z,1.50
2018-06-24T16:12:48.424Z,1.60
2018-06-24T16:15:19.837Z,1.50
2018-06-24T16:17:51.158Z,1.50
2018-06-24T16:20:22.554Z,1.40
2018-06-24T16:22:53.636Z,1.30
2018-06-24T16:25:24.874Z,1.70
2018-06-24T16:27:55.939Z,1.23
2018-06-24T16:31:30.692Z,1.30
2018-06-24T16:34:02.328Z,1.10
2018-06-24T16:36:33.441Z,1.60
2018-06-24T16:39:07.224Z,1.60
2018-06-24T16:41:38.548Z,1.50
2018-06-24T16:44:10.018Z,1.70
2018-06-24T16:46:41.144Z,1.50
2018-06-24T16:49:12.800Z,1.57
2018-06-24T16:51:43.944Z,1.50
2018-06-24T16:54:15.507Z,1.93
2018-06-24T16:56:46.919Z,1.87
2018-06-24T16:59:18.092Z,1.60
2018-06-24T17:01:49.460Z,1.50
2018-06-24T17:04:21.120Z,1.70
2018-06-24T17:06:52.245Z,1.80
2018-06-24T17:09:23.591Z,2.10
2018-06-24T17:11:54.840Z,1.70
2018-06-24T17:14:26.014Z,2.00
2018-06-24T17:16:57.237Z,1.90
2018-06-24T17:19:28.402Z,2.00
2018-06-24T17:22:00.032Z,2.00
2018-06-24T17:24:31.648Z,1.97
2018-06-24T17:27:02.958Z,1.90
2018-06-24T17:29:34.310Z,1.93
2018-06-24T17:32:05.736Z,2.13
2018-06-24T17:34:37.146Z,1.90
2018-06-24T17:37:08.588Z,1.90
2018-06-24T17:39:40.740Z,1.73
2018-06-24T17:42:12.059Z,1.97
2018-06-24T17:44:43.270Z,1.80
2018-06-24T17:47:14.622Z,2.00
2018-06-24T17:49:45.808Z,1.90
2018-06-24T17:52:16.871Z,1.73
2018-06-24T17:54:48.047Z,1.90
2018-06-24T17:57:19.445Z,2.00
2018-06-24T17:59:51.000Z,2.27
2018-06-24T18:02:22.364Z,2.13
2018-06-24T18:04:54.056Z,1.70
2018-06-24T18:07:25.188Z,2.00
2018-06-24T18:09:56.437Z,1.70
2018-06-24T18:12:27.559Z,1.80
2018-06-24T18:14:58.938Z,1.87
2018-06-24T18:17:30.133Z,1.70
2018-06-24T18:20:01.550Z,1.60
2018-06-24T18:22:32.708Z,1.80
2018-06-24T18:25:04.344Z,1.70
2018-06-24T18:27:35.494Z,1.70
2018-06-24T18:30:07.144Z,1.90
2018-06-24T18:32:38.428Z,1.93
2018-06-24T18:35:10.304Z,1.80
2018-06-24T18:37:41.621Z,1.90
2018-06-24T18:40:12.811Z,1.80
2018-06-24T18:42:44.190Z,1.80
2018-06-24T18:45:15.430Z,1.63
2018-06-24T18:47:47.048Z,1.70
2018-06-24T18:50:18.179Z,1.90
2018-06-24T18:52:49.651Z,1.83
2018-06-24T18:55:20.983Z,1.77
2018-06-24T19:02:41.668Z,1.80
2018-06-24T19:05:12.908Z,1.80
2018-06-24T19:07:43.920Z,2.07
2018-06-24T19:10:15.311Z,2.00
2018-06-24T19:12:46.496Z,2.07
2018-06-24T19:15:17.907Z,2.03
2018-06-24T19:17:49.065Z,2.13
2018-06-24T19:20:20.508Z,2.00
2018-06-24T19:22:52.120Z,2.17
2018-06-24T19:25:23.261Z,1.90
2018-06-24T19:27:55.266Z,2.23
2018-06-24T19:30:26.619Z,1.97
2018-06-24T19:32:58.004Z,2.13
2018-06-24T19:35:29.224Z,2.37
2018-06-24T19:38:00.369Z,2.10
2018-06-24T19:40:31.773Z,1.97
2018-06-24T19:43:03.197Z,1.83
2018-06-24T19:45:35.796Z,1.90
2018-06-24T19:48:07.402Z,2.00
2018-06-24T19:50:38.945Z,2.00
2018-06-24T19:53:11.953Z,2.10
2018-06-24T19:55:43.064Z,1.80
2018-06-24T19:58:14.272Z,2.03
2018-06-24T20:00:45.475Z,2.03
2018-06-24T20:03:16.818Z,2.00
2018-06-24T20:05:48.644Z,1.97
2018-06-24T20:08:20.188Z,2.20
2018-06-24T20:10:51.541Z,2.00
2018-06-24T20:13:22.739Z,2.20
2018-06-24T20:15:54.184Z,2.57
2018-06-24T20:18:25.119Z,2.63
2018-06-24T20:20:56.813Z,2.40
2018-06-24T20:24:31.588Z,2.50
2018-06-24T20:27:04.102Z,2.60
2018-06-24T20:29:35.347Z,2.83
2018-06-24T20:32:06.786Z,3.00
2018-06-24T20:34:38.511Z,4.90
2018-06-24T20:37:09.963Z,4.33
2018-06-24T20:39:41.113Z,3.13
2018-06-24T20:42:12.561Z,2.63
2018-06-24T20:44:43.904Z,2.63
2018-06-24T20:47:15.806Z,3.27
2018-06-24T20:49:47.296Z,3.07
2018-06-24T20:52:18.459Z,3.20
2018-06-24T20:54:49.816Z,2.77
2018-06-24T20:57:21.302Z,3.13
2018-06-24T20:59:52.589Z,3.13
2018-06-24T21:02:24.265Z,2.90
2018-06-24T21:04:55.372Z,3.57
2018-06-24T21:07:26.536Z,3.40
2018-06-24T21:09:57.788Z,2.90
2018-06-24T21:12:29.237Z,2.70
2018-06-24T21:15:00.350Z,2.77
2018-06-24T21:17:32.198Z,3.00
2018-06-24T21:20:03.516Z,3.00
2018-06-24T21:22:34.703Z,2.60
2018-06-24T21:25:06.083Z,2.70
2018-06-24T21:27:37.276Z,2.53
2018-06-24T21:30:08.740Z,2.60
2018-06-24T21:32:40.025Z,2.67
2018-06-24T21:35:11.271Z,2.70
2018-06-24T21:37:42.692Z,2.60
2018-06-24T21:40:13.851Z,2.80
2018-06-24T21:42:45.031Z,2.87
2018-06-24T21:45:16.427Z,2.90
2018-06-24T21:47:47.642Z,2.47
2018-06-24T21:50:19.234Z,2.90
2018-06-24T21:52:51.341Z,2.60
2018-06-24T21:55:22.543Z,2.80
2018-06-24T21:57:54.215Z,2.80
2018-06-24T22:00:25.408Z,2.80
2018-06-24T22:02:56.703Z,3.07
2018-06-24T22:05:27.951Z,2.97
2018-06-24T22:07:59.119Z,2.67
2018-06-24T22:10:30.333Z,3.13
2018-06-24T22:13:01.988Z,3.00
2018-06-24T22:15:33.246Z,2.50
2018-06-24T22:18:04.482Z,2.70
2018-06-24T22:20:35.664Z,2.60
2018-06-24T22:23:06.883Z,2.80
2018-06-24T22:25:38.488Z,2.87
2018-06-24T22:28:09.628Z,2.70
2018-06-24T22:30:41.484Z,3.00
2018-06-24T22:33:12.617Z,2.90
2018-06-24T22:35:43.759Z,2.80
2018-06-24T22:38:15.361Z,2.80
2018-06-24T22:40:47.516Z,3.10
2018-06-24T22:43:21.860Z,2.80
2018-06-24T22:45:53.253Z,2.70
2018-06-24T22:48:24.513Z,3.10
2018-06-24T22:50:55.668Z,3.07
2018-06-24T22:53:27.016Z,2.70
2018-06-24T22:55:58.492Z,2.80
2018-06-24T22:58:29.811Z,2.90
2018-06-24T23:01:01.063Z,3.10
2018-06-24T23:03:32.211Z,3.07
2018-06-24T23:06:03.558Z,3.07
2018-06-24T23:08:34.984Z,2.70
2018-06-24T23:11:06.508Z,2.50
2018-06-24T23:13:37.734Z,2.80
2018-06-24T23:16:09.036Z,2.60
2018-06-24T23:18:40.339Z,2.90
2018-06-24T23:21:11.588Z,3.00
2018-06-24T23:23:42.688Z,2.90
2018-06-24T23:26:13.714Z,3.10
2018-06-24T23:29:47.846Z,2.90
2018-06-24T23:32:19.009Z,2.53
2018-06-24T23:34:50.395Z,2.80
2018-06-24T23:37:21.781Z,2.90
2018-06-24T23:39:52.972Z,2.73
2018-06-24T23:42:24.596Z,2.80
2018-06-24T23:44:55.138Z,2.90
2018-06-24T23:47:26.360Z,2.97
2018-06-24T23:49:58.028Z,2.80
2018-06-24T23:52:29.103Z,2.50
2018-06-24T23:55:00.510Z,2.60
2018-06-24T23:57:32.160Z,2.80
